Time;durP1;ratioP1;P1;durP2;ratioP2;P2;SDS_P1;SDS_P2;PMS_P1;PMS_P2;Temp;Humidity;BMP_temperature;BMP_pressure;BME280_temperature;BME280_humidity;BME280_pressure;Samples;Min_cycle;Max_cycle;Signal;HPM_P1;HPM_P2
2022/04/12 00:00:40;;;;;;;10.73;5.77;;;2.00;99.90;;;;;;4880306;29;20269;-66
2022/04/12 00:03:07;;;;;;;14.20;6.37;;;2.10;99.90;;;;;;4878699;29;20222;-66
2022/04/12 00:05:36;;;;;;;15.17;6.43;;;2.00;99.90;;;;;;4879666;29;20231;-66
2022/04/12 00:08:03;;;;;;;11.33;5.90;;;2.00;99.90;;;;;;4879845;29;20541;-66
2022/04/12 00:10:30;;;;;;;10.90;5.67;;;2.10;99.90;;;;;;4879694;29;20588;-66
2022/04/12 00:12:58;;;;;;;11.13;5.23;;;2.10;99.90;;;;;;4879751;29;20191;-66
2022/04/12 00:15:23;;;;;;;12.10;6.00;;;2.10;99.90;;;;;;4879218;29;20191;-66
2022/04/12 00:20:33;;;;;;;12.40;5.93;;;2.00;99.90;;;;;;4879685;29;20560;-66
2022/04/12 00:22:59;;;;;;;14.93;6.47;;;2.00;99.90;;;;;;4879865;29;20227;-66
2022/04/12 00:25:27;;;;;;;10.63;6.43;;;2.00;99.90;;;;;;4879353;29;20188;-66
2022/04/12 00:27:55;;;;;;;11.13;6.33;;;2.00;99.90;;;;;;4879627;29;20196;-66
2022/04/12 00:30:21;;;;;;;12.30;5.90;;;2.00;99.90;;;;;;4879339;29;20201;-66
2022/04/12 00:32:50;;;;;;;10.67;6.13;;;2.00;99.90;;;;;;4879631;29;20207;-66
2022/04/12 00:35:17;;;;;;;11.80;6.10;;;1.90;99.90;;;;;;4879181;29;20695;-66
2022/04/12 00:37:43;;;;;;;11.67;5.43;;;1.90;99.90;;;;;;4879418;29;20182;-66
2022/04/12 00:40:10;;;;;;;10.93;5.60;;;1.90;99.90;;;;;;4879302;29;20346;-66
2022/04/12 00:42:37;;;;;;;9.70;5.80;;;1.90;99.90;;;;;;4878956;29;20233;-66
2022/04/12 00:45:04;;;;;;;12.43;5.93;;;1.90;99.90;;;;;;4879158;29;20207;-66
2022/04/12 00:47:29;;;;;;;12.10;6.23;;;1.90;99.90;;;;;;4878934;29;20635;-66
2022/04/12 00:49:55;;;;;;;10.17;6.27;;;1.90;99.90;;;;;;4862682;29;20187;-65
2022/04/12 00:52:21;;;;;;;11.90;6.10;;;1.90;99.90;;;;;;4878940;29;20602;-67
2022/04/12 00:54:49;;;;;;;11.40;6.10;;;1.90;99.90;;;;;;4878831;29;20324;-66
2022/04/12 00:57:15;;;;;;;10.90;5.77;;;1.80;99.90;;;;;;4878975;29;20285;-66
2022/04/12 00:59:44;;;;;;;10.17;5.80;;;1.80;99.90;;;;;;4878860;29;20216;-67
2022/04/12 01:02:10;;;;;;;11.27;5.63;;;1.70;99.90;;;;;;4879088;29;20217;-65
2022/04/12 01:04:36;;;;;;;12.53;6.13;;;1.80;99.90;;;;;;4878786;29;20234;-65
2022/04/12 01:07:02;;;;;;;11.60;6.50;;;1.80;99.90;;;;;;4877544;29;20378;-65
2022/04/12 01:09:28;;;;;;;14.33;6.80;;;1.90;99.90;;;;;;4878675;29;20194;-66
2022/04/12 01:11:55;;;;;;;13.13;6.70;;;1.90;99.90;;;;;;4878764;29;20196;-65
2022/04/12 01:14:25;;;;;;;9.97;5.37;;;1.90;99.90;;;;;;4878331;29;20187;-66
2022/04/12 01:16:52;;;;;;;11.57;5.77;;;1.90;99.90;;;;;;4878858;29;20188;-65
2022/04/12 01:19:18;;;;;;;10.73;5.67;;;1.80;99.90;;;;;;4878478;29;20181;-66
2022/04/12 01:21:53;;;;;;;11.17;6.13;;;1.90;99.90;;;;;;4877158;29;20302;-66
2022/04/12 01:24:19;;;;;;;11.27;6.27;;;1.90;99.90;;;;;;4878463;29;20229;-66
2022/04/12 01:26:46;;;;;;;13.10;6.00;;;1.90;99.90;;;;;;4877600;29;20196;-65
2022/04/12 01:29:12;;;;;;;10.97;5.90;;;1.90;99.90;;;;;;4878487;29;20532;-65
2022/04/12 01:31:37;;;;;;;9.90;5.33;;;1.90;99.90;;;;;;4878192;29;20555;-66
2022/04/12 01:34:03;;;;;;;9.70;6.07;;;1.90;99.90;;;;;;4878623;29;20273;-65
2022/04/12 01:36:29;;;;;;;11.17;5.67;;;1.90;99.90;;;;;;4878183;29;20563;-65
2022/04/12 01:38:55;;;;;;;14.20;6.47;;;1.90;99.90;;;;;;4878481;29;20523;-65
2022/04/12 01:41:20;;;;;;;11.97;5.73;;;1.90;99.90;;;;;;4876689;29;20651;-66
2022/04/12 01:43:46;;;;;;;7.87;4.13;;;1.90;99.90;;;;;;4878294;29;20194;-65
2022/04/12 01:46:12;;;;;;;10.10;4.60;;;1.80;99.90;;;;;;4878610;29;20193;-65
2022/04/12 01:48:37;;;;;;;10.10;4.63;;;1.80;99.90;;;;;;4861232;29;20221;-66
2022/04/12 01:51:03;;;;;;;9.73;5.57;;;1.80;99.90;;;;;;4861660;29;20194;-66
2022/04/12 01:53:29;;;;;;;9.47;5.50;;;1.80;99.90;;;;;;4877834;29;20218;-65
2022/04/12 01:55:55;;;;;;;8.67;4.80;;;1.60;99.90;;;;;;4878217;29;20283;-65
2022/04/12 01:58:21;;;;;;;13.93;5.83;;;1.60;99.90;;;;;;4878104;29;20190;-66
2022/04/12 02:00:46;;;;;;;10.97;5.83;;;1.70;99.90;;;;;;4878269;29;20190;-66
2022/04/12 02:03:12;;;;;;;10.77;5.90;;;1.70;99.90;;;;;;4878075;29;20301;-65
2022/04/12 02:05:39;;;;;;;12.13;5.97;;;1.70;99.90;;;;;;4878389;29;20551;-66
2022/04/12 02:08:05;;;;;;;9.83;5.07;;;1.70;99.90;;;;;;4878004;29;20194;-66
2022/04/12 02:10:31;;;;;;;8.23;4.77;;;1.70;99.90;;;;;;4877391;29;20193;-65
2022/04/12 02:12:57;;;;;;;14.57;5.80;;;1.70;99.90;;;;;;4878450;29;20194;-66
2022/04/12 02:15:23;;;;;;;8.43;4.53;;;1.70;99.90;;;;;;4861032;29;20285;-66
2022/04/12 02:17:48;;;;;;;12.13;6.10;;;1.60;99.90;;;;;;4877845;29;20284;-66
2022/04/12 02:20:14;;;;;;;8.73;4.93;;;1.70;99.90;;;;;;4859551;29;20287;-66
2022/04/12 02:22:40;;;;;;;9.20;5.40;;;1.60;99.90;;;;;;4858945;29;20245;-65
2022/04/12 02:25:06;;;;;;;14.03;5.97;;;1.60;99.90;;;;;;4859315;29;20274;-66
2022/04/12 02:27:32;;;;;;;8.80;4.70;;;1.70;99.90;;;;;;4857598;29;20187;-66
2022/04/12 02:29:58;;;;;;;8.67;4.70;;;1.70;99.90;;;;;;4859363;29;20704;-66
2022/04/12 02:32:23;;;;;;;9.40;5.07;;;1.80;99.90;;;;;;4858926;29;20195;-65
2022/04/12 02:34:49;;;;;;;8.97;4.87;;;1.90;99.90;;;;;;4859353;29;20281;-65
2022/04/12 02:37:15;;;;;;;10.27;5.07;;;2.00;99.90;;;;;;4860600;29;20269;-65
2022/04/12 02:39:40;;;;;;;9.37;5.43;;;2.10;99.90;;;;;;4862544;29;20218;-65
2022/04/12 02:42:07;;;;;;;12.03;6.03;;;2.10;99.90;;;;;;4862991;29;20634;-65
2022/04/12 02:44:32;;;;;;;12.77;5.37;;;2.20;99.90;;;;;;4862531;29;20246;-66
2022/04/12 02:46:58;;;;;;;7.47;4.00;;;2.30;99.90;;;;;;4862590;29;20292;-66
2022/04/12 02:49:24;;;;;;;8.83;5.20;;;2.30;99.90;;;;;;4862139;29;20215;-66
2022/04/12 02:51:51;;;;;;;11.00;5.70;;;2.40;99.90;;;;;;4862505;29;20279;-66
2022/04/12 02:54:18;;;;;;;10.03;5.23;;;2.40;99.90;;;;;;4862323;29;20203;-66
2022/04/12 02:56:44;;;;;;;13.97;5.60;;;2.40;99.90;;;;;;4862281;29;20243;-66
2022/04/12 02:59:10;;;;;;;11.67;6.17;;;2.50;99.90;;;;;;4862292;29;20181;-66
2022/04/12 03:01:36;;;;;;;11.37;5.67;;;2.50;99.90;;;;;;4862398;29;20194;-66
2022/04/12 03:04:02;;;;;;;12.90;6.90;;;2.50;99.90;;;;;;4862416;29;20223;-66
2022/04/12 03:06:28;;;;;;;11.67;5.50;;;2.50;99.90;;;;;;4866722;29;20251;-66
2022/04/12 03:08:53;;;;;;;12.00;4.33;;;2.50;99.90;;;;;;4880658;29;20246;-66
2022/04/12 03:11:19;;;;;;;11.93;6.43;;;2.60;99.90;;;;;;4880773;29;20190;-65
2022/04/12 03:13:45;;;;;;;10.23;5.13;;;2.60;99.90;;;;;;4880209;29;20645;-66
2022/04/12 03:16:10;;;;;;;6.60;3.90;;;2.50;99.90;;;;;;4863955;29;20203;-66
2022/04/12 03:18:36;;;;;;;10.20;4.43;;;2.50;99.90;;;;;;4879883;29;20193;-66
2022/04/12 03:21:02;;;;;;;11.83;5.10;;;2.60;99.90;;;;;;4880634;29;20652;-66
2022/04/12 03:23:27;;;;;;;9.47;4.73;;;2.60;99.90;;;;;;4879884;29;20276;-66
2022/04/12 03:25:53;;;;;;;8.27;4.97;;;2.60;99.90;;;;;;4863947;29;20187;-66
2022/04/12 03:28:19;;;;;;;11.27;5.57;;;2.60;99.90;;;;;;4863792;29;20223;-65
2022/04/12 03:30:45;;;;;;;10.50;4.67;;;2.60;99.90;;;;;;4880157;29;20669;-66
2022/04/12 03:33:11;;;;;;;7.27;4.50;;;2.60;99.90;;;;;;4879894;29;20627;-66
2022/04/12 03:35:36;;;;;;;7.43;4.40;;;2.60;99.90;;;;;;4863467;29;20231;-66
2022/04/12 03:38:02;;;;;;;7.53;4.43;;;2.50;99.90;;;;;;4878617;29;20542;-66
2022/04/12 03:40:31;;;;;;;16.70;6.33;;;2.50;99.90;;;;;;4879936;29;20185;-66
2022/04/12 03:43:01;;;;;;;11.27;6.10;;;2.40;99.90;;;;;;4879927;29;20282;-66
2022/04/12 03:45:28;;;;;;;8.30;5.10;;;2.30;99.90;;;;;;4879943;29;20533;-66
2022/04/12 03:47:54;;;;;;;11.77;5.27;;;2.20;99.90;;;;;;4880078;29;20191;-67
2022/04/12 03:50:20;;;;;;;18.10;6.30;;;2.20;99.90;;;;;;4879482;29;20187;-64
2022/04/12 03:52:47;;;;;;;14.93;6.10;;;2.10;99.90;;;;;;4877957;29;20500;-64
2022/04/12 03:55:13;;;;;;;10.97;5.50;;;2.00;99.90;;;;;;4875257;29;20246;-66
2022/04/12 03:57:39;;;;;;;9.23;4.70;;;2.00;99.90;;;;;;4860805;29;20242;-64
2022/04/12 04:00:08;;;;;;;11.90;5.73;;;1.90;99.90;;;;;;4861003;29;20187;-66
2022/04/12 04:02:34;;;;;;;17.27;6.53;;;1.90;99.90;;;;;;4875324;29;20226;-64
2022/04/12 04:05:00;;;;;;;9.80;5.37;;;1.90;99.90;;;;;;4859838;29;20200;-65
2022/04/12 04:07:27;;;;;;;10.47;5.60;;;1.90;99.90;;;;;;4860773;29;20203;-66
2022/04/12 04:09:53;;;;;;;10.77;5.30;;;2.00;99.90;;;;;;4860964;29;20274;-66
2022/04/12 04:12:20;;;;;;;10.70;5.57;;;2.00;99.90;;;;;;4860683;29;20184;-65
2022/04/12 04:14:47;;;;;;;14.13;5.80;;;2.10;99.90;;;;;;4858959;29;20582;-65
2022/04/12 04:17:13;;;;;;;8.73;5.27;;;2.20;99.90;;;;;;4860632;29;20651;-64
2022/04/12 04:19:39;;;;;;;12.53;6.07;;;2.30;99.90;;;;;;4859976;29;20204;-65
2022/04/12 04:22:05;;;;;;;9.77;5.40;;;2.50;99.90;;;;;;4861073;29;20220;-64
2022/04/12 04:24:31;;;;;;;7.70;5.00;;;2.60;99.90;;;;;;4860082;29;20201;-65
2022/04/12 04:26:56;;;;;;;10.97;6.23;;;2.70;99.90;;;;;;4860570;29;20191;-65
2022/04/12 04:29:24;;;;;;;11.77;5.97;;;2.80;99.90;;;;;;4874361;29;20651;-64
2022/04/12 04:31:54;;;;;;;11.77;5.60;;;2.90;99.90;;;;;;4859610;29;20219;-65
2022/04/12 04:34:19;;;;;;;11.03;5.57;;;3.00;99.90;;;;;;4859587;29;20220;-65
2022/04/12 04:36:46;;;;;;;12.23;6.53;;;3.20;99.90;;;;;;4859517;29;20258;-65
2022/04/12 04:39:11;;;;;;;11.40;3.97;;;3.40;99.90;;;;;;4859652;29;20191;-65
2022/04/12 04:41:37;;;;;;;12.43;5.93;;;3.60;99.90;;;;;;4853311;29;20211;-65
2022/04/12 04:44:03;;;;;;;12.00;5.07;;;3.80;99.90;;;;;;4857375;29;20642;-64
2022/04/12 04:46:29;;;;;;;8.73;5.33;;;3.80;99.90;;;;;;4858496;29;20192;-65
2022/04/12 04:48:55;;;;;;;10.33;5.10;;;3.90;99.90;;;;;;4854773;29;20216;-62
2022/04/12 04:51:21;;;;;;;21.77;6.33;;;3.90;99.90;;;;;;4872271;29;20220;-61
2022/04/12 04:53:55;;;;;;;11.13;4.80;;;4.00;99.90;;;;;;4857234;29;20276;-61
2022/04/12 04:56:21;;;;;;;8.57;4.90;;;3.90;99.90;;;;;;4863681;29;20239;-61
2022/04/12 04:58:47;;;;;;;8.90;4.77;;;3.80;99.90;;;;;;4874323;29;20210;-61
2022/04/12 05:01:13;;;;;;;9.00;4.30;;;3.80;99.90;;;;;;4877557;29;20617;-64
2022/04/12 05:03:39;;;;;;;13.60;6.90;;;3.60;99.90;;;;;;4851520;29;20255;-61
2022/04/12 05:06:05;;;;;;;12.13;5.87;;;3.60;99.90;;;;;;4883658;29;20234;-61
2022/04/12 05:08:30;;;;;;;9.90;5.20;;;3.60;99.90;;;;;;4877261;29;20203;-63
2022/04/12 05:10:56;;;;;;;13.93;5.90;;;3.70;99.90;;;;;;4877361;29;20194;-61
2022/04/12 05:13:22;;;;;;;8.97;5.17;;;3.80;99.90;;;;;;4877291;29;20254;-60
2022/04/12 05:15:47;;;;;;;12.73;5.77;;;3.70;99.90;;;;;;4877216;29;20207;-66
2022/04/12 05:18:13;;;;;;;8.70;4.90;;;3.80;99.90;;;;;;4872903;29;20188;-66
2022/04/12 05:20:39;;;;;;;9.13;5.10;;;3.80;99.90;;;;;;4867660;29;20502;-64
2022/04/12 05:23:05;;;;;;;11.73;5.87;;;3.90;99.90;;;;;;4877681;29;20227;-63
2022/04/12 05:25:30;;;;;;;18.07;5.20;;;3.90;99.90;;;;;;4877517;29;20543;-66
2022/04/12 05:27:56;;;;;;;16.83;6.83;;;3.80;99.90;;;;;;4865005;29;20284;-68
2022/04/12 05:30:22;;;;;;;14.87;5.90;;;3.90;99.90;;;;;;4877247;29;20266;-68
2022/04/12 05:32:48;;;;;;;9.70;4.83;;;3.80;99.90;;;;;;4876670;29;20211;-66
2022/04/12 05:35:14;;;;;;;11.97;6.03;;;3.80;99.90;;;;;;4864545;29;20320;-62
2022/04/12 05:37:48;;;;;;;13.47;7.07;;;3.90;99.90;;;;;;4860332;29;20208;-66
2022/04/12 05:40:15;;;;;;;15.73;7.43;;;3.90;99.90;;;;;;4876726;29;20278;-63
2022/04/12 05:42:41;;;;;;;17.30;7.40;;;3.90;99.90;;;;;;4875458;29;20629;-62
2022/04/12 05:45:08;;;;;;;12.63;7.13;;;4.00;99.90;;;;;;4876888;29;20569;-65
2022/04/12 05:47:44;;;;;;;11.17;6.17;;;4.10;99.90;;;;;;4876445;29;20851;-63
2022/04/12 05:50:12;;;;;;;10.20;6.60;;;4.10;99.90;;;;;;4877398;29;20175;-64
2022/04/12 05:52:38;;;;;;;12.13;6.20;;;4.10;99.90;;;;;;4876621;29;20192;-64
2022/04/12 05:55:09;;;;;;;11.03;5.93;;;4.20;99.90;;;;;;4876625;29;20244;-65
2022/04/12 05:57:37;;;;;;;15.47;6.07;;;4.30;99.90;;;;;;4875892;29;20184;-61
2022/04/12 06:00:06;;;;;;;12.77;6.00;;;4.30;99.90;;;;;;4875964;29;20550;-62
2022/04/12 06:02:32;;;;;;;15.37;6.97;;;4.30;99.90;;;;;;4857460;29;20619;-71
2022/04/12 06:04:58;;;;;;;12.90;5.20;;;4.40;99.90;;;;;;4840720;29;20629;-64
2022/04/12 06:07:33;;;;;;;10.80;5.70;;;4.40;99.90;;;;;;4869384;29;20267;-65
2022/04/12 06:10:03;;;;;;;8.43;4.57;;;4.50;99.90;;;;;;4874644;29;20191;-65
2022/04/12 06:12:29;;;;;;;18.80;6.67;;;4.50;99.90;;;;;;4878735;29;20659;-63
2022/04/12 06:14:55;;;;;;;13.77;5.97;;;4.60;99.90;;;;;;4880593;29;20596;-65
2022/04/12 06:17:27;;;;;;;17.67;6.90;;;4.60;99.90;;;;;;4880292;29;20188;-63
2022/04/12 06:19:53;;;;;;;23.10;8.73;;;4.60;99.90;;;;;;4880207;29;20199;-64
2022/04/12 06:22:19;;;;;;;15.13;6.83;;;4.80;99.90;;;;;;4880648;29;20212;-64
2022/04/12 06:24:44;;;;;;;13.37;6.23;;;5.00;99.90;;;;;;4880456;29;20203;-61
2022/04/12 06:27:10;;;;;;;18.10;6.73;;;4.90;99.90;;;;;;4864093;29;20496;-62
2022/04/12 06:29:36;;;;;;;15.90;6.97;;;4.90;99.90;;;;;;4880718;29;20196;-63
2022/04/12 06:32:02;;;;;;;13.37;6.07;;;5.00;99.90;;;;;;4880386;29;20196;-62
2022/04/12 06:34:28;;;;;;;12.73;6.40;;;5.00;99.90;;;;;;4865035;29;20245;-61
2022/04/12 06:36:54;;;;;;;15.53;7.13;;;5.20;99.90;;;;;;4861667;29;20665;-63
2022/04/12 06:39:20;;;;;;;12.23;5.70;;;5.20;99.90;;;;;;4861745;29;20196;-61
2022/04/12 06:41:45;;;;;;;19.23;8.63;;;5.20;99.90;;;;;;4862527;29;20538;-60
2022/04/12 06:44:11;;;;;;;18.67;8.53;;;5.30;99.90;;;;;;4845686;29;20201;-64
2022/04/12 06:46:37;;;;;;;11.10;7.17;;;5.40;99.90;;;;;;4861647;29;20297;-64
2022/04/12 06:49:02;;;;;;;14.67;6.50;;;5.50;99.90;;;;;;4861679;29;20197;-66
2022/04/12 06:51:28;;;;;;;13.13;6.67;;;5.60;99.90;;;;;;4860352;29;20566;-61
2022/04/12 06:53:54;;;;;;;13.47;7.10;;;5.70;99.90;;;;;;4861238;29;20603;-65
2022/04/12 06:56:20;;;;;;;22.60;8.93;;;5.70;99.90;;;;;;4845015;29;20242;-66
2022/04/12 06:58:45;;;;;;;11.53;4.70;;;5.80;99.90;;;;;;4861756;29;20187;-66
2022/04/12 07:01:11;;;;;;;13.40;6.40;;;6.00;99.90;;;;;;4861696;29;20233;-65
2022/04/12 07:03:37;;;;;;;18.70;7.33;;;6.10;99.90;;;;;;4844046;29;20214;-64
2022/04/12 07:06:03;;;;;;;19.37;9.63;;;6.20;99.90;;;;;;4863270;29;20197;-66
2022/04/12 07:08:29;;;;;;;21.57;9.30;;;6.20;99.90;;;;;;4879439;29;20183;-65
2022/04/12 07:10:55;;;;;;;16.87;8.07;;;6.20;99.90;;;;;;4879477;29;20554;-62
2022/04/12 07:13:21;;;;;;;13.17;7.70;;;6.20;99.90;;;;;;4879836;29;20199;-67
2022/04/12 07:15:47;;;;;;;13.67;8.03;;;6.20;99.90;;;;;;4879935;29;20193;-61
2022/04/12 07:18:12;;;;;;;10.13;5.63;;;6.20;99.90;;;;;;4879724;29;20187;-67
2022/04/12 07:20:38;;;;;;;13.90;6.33;;;6.20;99.90;;;;;;4862841;29;20186;-70
2022/04/12 07:23:04;;;;;;;14.20;8.07;;;6.40;99.90;;;;;;4878633;29;20267;-64
2022/04/12 07:25:30;;;;;;;16.20;7.77;;;6.60;99.90;;;;;;4879739;29;20270;-61
2022/04/12 07:27:55;;;;;;;22.57;6.80;;;6.90;99.90;;;;;;4879489;29;20491;-61
2022/04/12 07:30:21;;;;;;;10.83;7.10;;;7.30;99.90;;;;;;4879945;29;20205;-61
2022/04/12 07:32:47;;;;;;;16.83;7.27;;;7.60;99.90;;;;;;4876097;29;20188;-64
2022/04/12 07:35:12;;;;;;;11.87;6.30;;;7.80;99.90;;;;;;4859609;29;20686;-64
2022/04/12 07:37:42;;;;;;;9.23;5.40;;;7.50;99.90;;;;;;4860636;29;20195;-62
2022/04/12 07:40:09;;;;;;;8.77;5.67;;;7.30;99.90;;;;;;4861131;29;20189;-59
2022/04/12 07:42:35;;;;;;;12.23;6.37;;;7.30;99.90;;;;;;4860235;29;20273;-61
2022/04/12 07:45:01;;;;;;;13.80;6.17;;;7.40;99.90;;;;;;4844267;29;20193;-62
2022/04/12 07:47:28;;;;;;;10.57;6.37;;;7.30;99.90;;;;;;4859914;29;20192;-63
2022/04/12 07:49:54;;;;;;;8.67;5.17;;;7.50;99.90;;;;;;4860117;29;20235;-62
2022/04/12 07:52:20;;;;;;;8.60;5.07;;;7.40;99.90;;;;;;4860406;29;20249;-62
2022/04/12 07:54:45;;;;;;;10.23;5.33;;;7.20;99.80;;;;;;4876372;29;20243;-62
2022/04/12 07:57:11;;;;;;;10.87;5.00;;;6.90;99.90;;;;;;4878608;29;20197;-63
2022/04/12 07:59:38;;;;;;;10.43;6.10;;;6.80;99.90;;;;;;4876576;29;20196;-62
2022/04/12 08:02:04;;;;;;;11.47;6.00;;;7.00;99.90;;;;;;4878397;29;20216;-63
2022/04/12 08:04:29;;;;;;;9.43;5.30;;;6.90;99.90;;;;;;4849278;29;20229;-63
2022/04/12 08:06:55;;;;;;;11.40;5.57;;;6.80;99.90;;;;;;4868263;29;20684;-63
2022/04/12 08:09:21;;;;;;;10.73;5.30;;;6.80;99.90;;;;;;4879453;29;20181;-62
2022/04/12 08:11:46;;;;;;;9.17;4.97;;;7.20;99.90;;;;;;4878766;29;20219;-64
2022/04/12 08:14:12;;;;;;;8.70;5.47;;;7.50;97.90;;;;;;4878900;29;20644;-62
2022/04/12 08:16:38;;;;;;;10.63;4.97;;;7.60;98.20;;;;;;4862026;29;20275;-60
2022/04/12 08:19:04;;;;;;;11.90;5.07;;;7.80;97.70;;;;;;4878372;29;20645;-60
2022/04/12 08:21:31;;;;;;;7.20;4.47;;;8.00;98.00;;;;;;4879094;29;20181;-63
2022/04/12 08:23:57;;;;;;;6.80;3.87;;;7.70;98.50;;;;;;4878330;29;20216;-69
2022/04/12 08:26:24;;;;;;;10.20;4.20;;;7.60;98.60;;;;;;4862020;29;20290;-65
2022/04/12 08:28:50;;;;;;;10.47;5.33;;;7.50;98.70;;;;;;4861809;29;20218;-69
2022/04/12 08:31:16;;;;;;;8.37;4.47;;;7.40;98.80;;;;;;4878411;29;20215;-66
2022/04/12 08:33:41;;;;;;;7.53;4.37;;;7.10;98.40;;;;;;4868475;29;20268;-61
2022/04/12 08:36:07;;;;;;;11.13;5.50;;;6.80;98.60;;;;;;4859492;29;20184;-62
2022/04/12 08:38:33;;;;;;;16.97;6.23;;;6.80;99.10;;;;;;4860134;29;20196;-65
2022/04/12 08:41:01;;;;;;;11.03;4.57;;;6.70;99.00;;;;;;4859817;29;20227;-69
2022/04/12 08:43:29;;;;;;;11.23;4.63;;;6.60;98.80;;;;;;4859966;29;20238;-60
2022/04/12 08:45:55;;;;;;;13.23;5.30;;;6.80;98.40;;;;;;4859482;29;20640;-62
2022/04/12 08:48:22;;;;;;;11.07;4.43;;;7.10;98.30;;;;;;4859128;29;20279;-62
2022/04/12 08:50:49;;;;;;;7.03;4.30;;;7.50;97.70;;;;;;4858794;29;20189;-64
2022/04/12 08:53:17;;;;;;;7.73;4.57;;;7.90;96.50;;;;;;4857943;29;20192;-68
2022/04/12 08:55:43;;;;;;;7.20;4.43;;;8.20;96.00;;;;;;4859233;29;20594;-64
2022/04/12 08:58:09;;;;;;;8.63;4.53;;;8.50;95.70;;;;;;4858898;29;20197;-68
2022/04/12 09:00:35;;;;;;;10.73;4.33;;;8.30;95.30;;;;;;4859224;29;20244;-64
2022/04/12 09:03:00;;;;;;;6.47;4.07;;;8.20;95.60;;;;;;4840802;29;20247;-65
2022/04/12 09:05:27;;;;;;;7.60;5.20;;;8.00;95.50;;;;;;4857902;29;20200;-63
2022/04/12 09:07:53;;;;;;;10.37;4.80;;;7.50;95.20;;;;;;4874146;29;20410;-64
2022/04/12 09:10:23;;;;;;;8.83;4.50;;;7.40;95.90;;;;;;4877673;29;20314;-65
2022/04/12 09:12:48;;;;;;;9.50;5.37;;;7.50;96.30;;;;;;4876938;29;20653;-65
2022/04/12 09:15:15;;;;;;;8.40;4.87;;;7.70;96.20;;;;;;4878119;29;20208;-65
2022/04/12 09:17:44;;;;;;;10.83;5.13;;;8.00;95.80;;;;;;4876885;29;20188;-65
2022/04/12 09:20:19;;;;;;;13.07;5.73;;;8.30;95.00;;;;;;4877450;29;20667;-65
2022/04/12 09:22:45;;;;;;;13.77;6.07;;;8.80;94.40;;;;;;4877328;29;20255;-66
2022/04/12 09:25:13;;;;;;;9.60;5.40;;;8.80;93.80;;;;;;4877262;29;20193;-63
2022/04/12 09:27:40;;;;;;;8.67;5.20;;;8.40;93.80;;;;;;4877436;29;20211;-63
2022/04/12 09:30:14;;;;;;;9.37;5.33;;;8.00;94.50;;;;;;4877187;29;20192;-65
2022/04/12 09:32:51;;;;;;;9.47;5.70;;;8.00;94.90;;;;;;4875323;29;20192;-62
2022/04/12 09:35:16;;;;;;;11.03;5.53;;;7.90;94.60;;;;;;4859177;29;20177;-66
2022/04/12 09:37:44;;;;;;;8.13;5.13;;;7.80;95.00;;;;;;4858807;29;20185;-65
2022/04/12 09:40:12;;;;;;;8.20;5.37;;;8.00;95.00;;;;;;4858786;29;20292;-63
2022/04/12 09:42:41;;;;;;;10.00;5.57;;;8.50;93.90;;;;;;4858630;29;20204;-63
2022/04/12 09:45:10;;;;;;;10.73;5.13;;;8.70;92.90;;;;;;4858715;29;20647;-66
2022/04/12 09:47:35;;;;;;;10.37;4.73;;;8.50;93.90;;;;;;4858059;29;20192;-66
2022/04/12 09:50:02;;;;;;;6.23;3.97;;;8.50;94.90;;;;;;4858573;29;20264;-64
2022/04/12 09:52:28;;;;;;;9.90;4.57;;;8.40;94.90;;;;;;4858350;29;20185;-64
2022/04/12 09:54:55;;;;;;;8.60;5.67;;;8.10;95.50;;;;;;4857420;29;20243;-64
2022/04/12 09:57:22;;;;;;;8.07;3.77;;;7.90;96.00;;;;;;4858849;29;20192;-65
2022/04/12 09:59:48;;;;;;;6.80;4.30;;;7.80;97.10;;;;;;4857854;29;20188;-64
2022/04/12 10:02:15;;;;;;;7.53;4.67;;;7.90;97.30;;;;;;4857802;29;20253;-64
2022/04/12 10:04:42;;;;;;;8.33;3.87;;;8.10;96.60;;;;;;4857508;29;20551;-63
2022/04/12 10:07:11;;;;;;;8.97;4.70;;;8.20;95.30;;;;;;4868224;29;20199;-64
2022/04/12 10:09:38;;;;;;;5.30;3.83;;;8.20;95.30;;;;;;4876527;29;20183;-64
2022/04/12 10:12:08;;;;;;;9.90;4.93;;;8.40;95.20;;;;;;4876962;29;20637;-64
2022/04/12 10:14:35;;;;;;;13.20;4.60;;;8.70;94.50;;;;;;4876634;29;20197;-65
2022/04/12 10:17:02;;;;;;;10.43;4.43;;;8.80;94.40;;;;;;4876469;29;20271;-64
2022/04/12 10:19:31;;;;;;;7.50;4.83;;;8.90;94.10;;;;;;4860000;29;20189;-65
2022/04/12 10:21:57;;;;;;;6.13;3.77;;;8.70;93.70;;;;;;4875624;29;20216;-65
2022/04/12 10:24:27;;;;;;;6.50;3.13;;;8.40;94.10;;;;;;4876732;29;20193;-64
2022/04/12 10:26:54;;;;;;;6.60;4.00;;;8.30;93.70;;;;;;4875997;29;20192;-65
2022/04/12 10:29:20;;;;;;;8.67;4.27;;;8.40;93.80;;;;;;4875375;29;20262;-63
2022/04/12 10:31:56;;;;;;;8.03;4.57;;;8.70;94.30;;;;;;4876188;29;20206;-64
2022/04/12 10:34:22;;;;;;;8.23;4.57;;;9.20;93.40;;;;;;4861429;29;20508;-63
2022/04/12 10:37:04;;;;;;;4.30;2.80;;;8.90;92.40;;;;;;4857842;29;20268;-64
2022/04/12 10:39:31;;;;;;;5.47;2.50;;;8.90;91.30;;;;;;4858207;29;20185;-63
2022/04/12 10:41:58;;;;;;;20.77;4.50;;;8.50;88.70;;;;;;4858072;29;20612;-63
2022/04/12 10:44:25;;;;;;;4.60;2.63;;;8.30;88.00;;;;;;4856296;29;20197;-64
2022/04/12 10:46:52;;;;;;;12.10;3.93;;;8.10;91.10;;;;;;4857696;29;20187;-63
2022/04/12 10:49:21;;;;;;;8.80;3.50;;;7.60;94.20;;;;;;4857830;29;20205;-63
2022/04/12 10:51:57;;;;;;;8.07;3.67;;;7.40;94.60;;;;;;4857888;29;20197;-63
2022/04/12 10:54:34;;;;;;;6.27;3.27;;;7.30;94.90;;;;;;4858273;29;20196;-65
2022/04/12 10:57:30;;;;;;;7.60;3.20;;;7.40;94.20;;;;;;4857731;29;20209;-63
2022/04/12 11:00:14;;;;;;;3.60;2.47;;;7.70;93.80;;;;;;4848897;29;20193;-63
2022/04/12 11:02:45;;;;;;;9.97;3.47;;;8.00;93.30;;;;;;4862797;29;20257;-62
2022/04/12 11:05:32;;;;;;;6.83;3.63;;;8.30;93.50;;;;;;4879724;29;20498;-65
2022/04/12 11:07:59;;;;;;;6.67;4.07;;;8.80;93.00;;;;;;4879290;29;20225;-64
2022/04/12 11:10:24;;;;;;;6.30;3.10;;;9.10;92.40;;;;;;4879442;29;20261;-63
2022/04/12 11:13:03;;;;;;;7.73;3.80;;;8.90;91.70;;;;;;4879861;29;20653;-64
2022/04/12 11:15:30;;;;;;;12.83;4.53;;;8.80;92.10;;;;;;4879484;29;20274;-65
2022/04/12 11:18:15;;;;;;;7.87;3.50;;;9.40;92.10;;;;;;4879175;29;20181;-63
2022/04/12 11:20:43;;;;;;;4.60;3.00;;;10.10;90.70;;;;;;4879456;29;20206;-64
2022/04/12 11:23:12;;;;;;;3.70;2.20;;;10.60;88.30;;;;;;4879207;29;20235;-63
2022/04/12 11:25:51;;;;;;;4.60;3.33;;;10.60;84.80;;;;;;4879810;29;20192;-61
2022/04/12 11:28:22;;;;;;;8.40;3.37;;;10.50;87.00;;;;;;4879800;29;20191;-63
2022/04/12 11:30:56;;;;;;;5.87;3.57;;;9.80;91.80;;;;;;4879013;29;20189;-65
2022/04/12 11:33:29;;;;;;;6.97;4.03;;;9.40;93.10;;;;;;4872271;29;20263;-64
2022/04/12 11:35:56;;;;;;;8.97;3.87;;;9.10;94.10;;;;;;4860273;29;20190;-64
2022/04/12 11:38:23;;;;;;;7.10;3.37;;;9.10;94.00;;;;;;4860871;29;20201;-63
2022/04/12 11:40:52;;;;;;;6.50;3.30;;;8.80;93.50;;;;;;4860225;29;20192;-63
2022/04/12 11:43:20;;;;;;;3.80;2.90;;;8.80;93.00;;;;;;4860497;29;20214;-63
2022/04/12 11:45:50;;;;;;;7.67;3.00;;;8.80;92.00;;;;;;4860111;29;20187;-63
2022/04/12 11:48:16;;;;;;;7.27;3.20;;;9.20;91.40;;;;;;4860683;29;20230;-63
2022/04/12 11:50:50;;;;;;;6.13;3.90;;;9.70;90.80;;;;;;4843797;29;20192;-63
2022/04/12 11:53:16;;;;;;;6.17;3.60;;;10.30;89.00;;;;;;4860718;29;20192;-63
2022/04/12 11:55:45;;;;;;;6.53;3.20;;;10.40;88.20;;;;;;4862771;29;20293;-65
2022/04/12 11:58:11;;;;;;;11.00;4.63;;;10.70;86.50;;;;;;4897773;29;20552;-63
2022/04/12 12:00:36;;;;;;;8.90;4.53;;;11.30;85.70;;;;;;4880371;29;20279;-71
2022/04/12 12:03:02;;;;;;;6.03;4.30;;;12.80;81.80;;;;;;4888519;29;20223;-62
2022/04/12 12:05:31;;;;;;;5.80;3.77;;;13.60;76.30;;;;;;4843673;29;20296;-62
2022/04/12 12:08:00;;;;;;;10.43;4.30;;;14.60;73.10;;;;;;4875776;29;20465;-65
2022/04/12 12:10:29;;;;;;;3.70;3.17;;;15.00;70.40;;;;;;4877196;29;20637;-65
2022/04/12 12:12:55;;;;;;;7.63;3.60;;;15.90;67.90;;;;;;4877673;29;20188;-64
2022/04/12 12:15:26;;;;;;;5.80;3.50;;;15.00;66.30;;;;;;4878801;29;20248;-66
2022/04/12 12:18:09;;;;;;;13.40;4.80;;;13.80;68.00;;;;;;4877997;29;20192;-64
2022/04/12 12:20:38;;;;;;;5.87;3.17;;;12.40;71.80;;;;;;4862025;29;20189;-63
2022/04/12 12:23:09;;;;;;;4.70;3.50;;;11.50;74.00;;;;;;4878599;29;20229;-63
2022/04/12 12:25:41;;;;;;;8.60;3.47;;;10.90;75.60;;;;;;4878316;29;20629;-62
2022/04/12 12:28:15;;;;;;;5.57;3.43;;;10.90;72.70;;;;;;4878560;29;20245;-65
2022/04/12 12:30:42;;;;;;;4.60;3.00;;;11.10;71.90;;;;;;4877494;29;20288;-66
2022/04/12 12:33:09;;;;;;;5.00;2.93;;;11.70;69.60;;;;;;4877872;29;20538;-63
2022/04/12 12:35:39;;;;;;;3.93;2.50;;;12.20;69.00;;;;;;4861393;29;20198;-66
2022/04/12 12:38:12;;;;;;;10.40;3.03;;;12.50;65.50;;;;;;4878786;29;20243;-64
2022/04/12 12:40:39;;;;;;;4.83;2.87;;;12.20;64.90;;;;;;4874668;29;20269;-62
2022/04/12 12:43:15;;;;;;;10.93;4.80;;;11.70;67.20;;;;;;4874135;29;20753;-64
2022/04/12 12:45:45;;;;;;;4.83;3.30;;;11.40;67.10;;;;;;4868115;29;20288;-63
2022/04/12 12:48:15;;;;;;;11.83;3.20;;;11.90;67.50;;;;;;4860328;29;20223;-63
2022/04/12 12:50:42;;;;;;;5.27;3.30;;;14.80;64.60;;;;;;4870750;29;20551;-63
2022/04/12 12:53:10;;;;;;;9.53;2.93;;;17.10;58.30;;;;;;4872840;29;20658;-62